Time;durP1;ratioP1;P1;durP2;ratioP2;P2;SDS_P1;SDS_P2;PMS_P1;PMS_P2;Temp;Humidity;BMP_temperature;BMP_pressure;BME280_temperature;BME280_humidity;BME280_pressure;Samples;Min_cycle;Max_cycle;Signal;HPM_P1;HPM_P2
2021/03/19 00:00:24;;;;;;;1.30;1.15;;;6.20;82.80;;;;;;4998994;28;20096;-86
2021/03/19 00:02:52;;;;;;;2.70;1.45;;;6.20;82.80;;;;;;5017369;28;20526;-86
2021/03/19 00:05:19;;;;;;;2.13;1.30;;;6.20;83.00;;;;;;5016708;28;20032;-86
2021/03/19 00:07:47;;;;;;;2.63;1.50;;;6.20;83.10;;;;;;5017304;28;20084;-86
2021/03/19 00:10:17;;;;;;;2.80;1.52;;;6.10;83.10;;;;;;4999464;28;20022;-81
2021/03/19 00:12:43;;;;;;;3.58;1.08;;;6.10;83.70;;;;;;5017475;28;20030;-85
2021/03/19 00:15:10;;;;;;;1.80;1.27;;;6.00;83.10;;;;;;5016692;28;20032;-86
2021/03/19 00:17:36;;;;;;;3.80;1.55;;;6.00;83.10;;;;;;5015762;28;20470;-85
2021/03/19 00:20:04;;;;;;;2.88;1.38;;;6.00;83.10;;;;;;5016228;28;20034;-86
2021/03/19 00:22:30;;;;;;;2.22;1.40;;;5.90;83.20;;;;;;5015930;28;20021;-85
2021/03/19 00:24:56;;;;;;;3.83;1.40;;;5.90;83.30;;;;;;5015989;28;20026;-86
2021/03/19 00:27:21;;;;;;;4.25;1.70;;;5.90;83.30;;;;;;5015943;28;20104;-86
2021/03/19 00:29:47;;;;;;;3.97;1.40;;;5.80;83.30;;;;;;5016496;28;20032;-86
2021/03/19 00:32:12;;;;;;;4.55;1.80;;;5.90;83.40;;;;;;4998808;28;20478;-85
2021/03/19 00:34:38;;;;;;;2.15;1.50;;;5.80;83.30;;;;;;5015918;28;20414;-86
2021/03/19 00:37:04;;;;;;;4.45;1.98;;;5.80;83.30;;;;;;5016039;28;20026;-86
2021/03/19 00:39:30;;;;;;;4.00;2.00;;;5.80;83.30;;;;;;5015707;28;20081;-85
2021/03/19 00:41:55;;;;;;;3.85;1.90;;;5.80;83.30;;;;;;5017205;28;20532;-85
2021/03/19 00:44:21;;;;;;;1.90;1.17;;;5.80;83.40;;;;;;4997736;28;20104;-85
2021/03/19 00:46:47;;;;;;;2.53;1.42;;;5.80;83.40;;;;;;5015218;28;20022;-85
2021/03/19 00:49:13;;;;;;;4.63;1.85;;;5.70;83.30;;;;;;5015320;28;20026;-84
2021/03/19 00:51:39;;;;;;;2.22;1.40;;;5.70;83.40;;;;;;4997001;28;20374;-83
2021/03/19 00:54:05;;;;;;;3.15;1.55;;;5.60;83.40;;;;;;4996937;28;20108;-85
2021/03/19 00:56:30;;;;;;;2.25;1.20;;;5.60;83.50;;;;;;5014831;28;20034;-86
2021/03/19 00:58:56;;;;;;;2.08;1.20;;;5.60;83.60;;;;;;5014973;28;20037;-84
2021/03/19 01:01:22;;;;;;;4.22;1.90;;;5.50;83.50;;;;;;5014160;28;20045;-83
2021/03/19 01:03:47;;;;;;;3.42;1.50;;;5.50;83.60;;;;;;5014767;28;20041;-84
2021/03/19 01:06:15;;;;;;;5.07;2.13;;;5.50;83.60;;;;;;5014958;28;20052;-85
2021/03/19 01:08:40;;;;;;;1.75;1.33;;;5.50;83.50;;;;;;5014088;28;20034;-85
2021/03/19 01:11:07;;;;;;;2.80;1.67;;;5.50;83.60;;;;;;5013563;28;20026;-85
2021/03/19 01:13:32;;;;;;;4.18;1.50;;;5.50;83.60;;;;;;5014264;28;20026;-85
2021/03/19 01:15:58;;;;;;;4.55;1.77;;;5.50;83.60;;;;;;4996759;28;20473;-84
2021/03/19 01:18:27;;;;;;;2.70;1.60;;;5.50;83.60;;;;;;5013728;28;20446;-85
2021/03/19 01:20:53;;;;;;;4.57;1.60;;;5.50;83.70;;;;;;5014166;28;20112;-85
2021/03/19 01:23:19;;;;;;;3.38;2.10;;;5.40;83.70;;;;;;4995100;28;20485;-81
2021/03/19 01:25:45;;;;;;;3.53;1.80;;;5.40;83.70;;;;;;4996912;28;20458;-84
2021/03/19 01:28:14;;;;;;;3.35;1.63;;;5.40;83.80;;;;;;5014019;28;20068;-86
2021/03/19 01:30:40;;;;;;;3.72;1.60;;;5.40;83.90;;;;;;4995786;28;20083;-84
2021/03/19 01:33:07;;;;;;;1.75;1.27;;;5.30;83.90;;;;;;5014085;28;20025;-84
2021/03/19 01:35:39;;;;;;;4.85;1.80;;;5.30;83.90;;;;;;5013854;28;20037;-84
2021/03/19 01:38:05;;;;;;;3.17;1.67;;;5.30;83.90;;;;;;5014510;28;20029;-84
2021/03/19 01:40:44;;;;;;;3.83;2.05;;;5.30;84.00;;;;;;5013223;28;20462;-84
2021/03/19 01:43:12;;;;;;;4.13;1.70;;;5.20;84.00;;;;;;5013892;28;20022;-83
2021/03/19 01:46:15;;;;;;;3.35;2.17;;;5.20;84.00;;;;;;4995430;28;20389;-84
2021/03/19 01:49:18;;;;;;;3.50;1.90;;;5.20;84.10;;;;;;5012639;28;20074;-84
2021/03/19 01:52:22;;;;;;;3.03;2.00;;;5.20;84.10;;;;;;4995191;28;20034;-83
2021/03/19 01:55:25;;;;;;;2.55;1.58;;;5.10;84.10;;;;;;5013502;28;20433;-85
2021/03/19 01:58:28;;;;;;;3.95;1.58;;;5.10;84.20;;;;;;5013292;28;20033;-84
2021/03/19 02:01:33;;;;;;;4.50;2.05;;;5.00;84.30;;;;;;5013852;28;20034;-83
2021/03/19 02:04:35;;;;;;;4.43;2.00;;;5.00;84.40;;;;;;4992222;28;20136;-83
2021/03/19 02:07:39;;;;;;;3.58;1.73;;;5.00;84.40;;;;;;4995829;28;20022;-84
2021/03/19 02:10:41;;;;;;;3.92;2.00;;;5.00;84.40;;;;;;5013222;28;20029;-83
2021/03/19 02:13:45;;;;;;;3.88;1.83;;;4.90;84.20;;;;;;4995424;28;20022;-82
2021/03/19 02:16:48;;;;;;;3.63;1.92;;;4.90;84.30;;;;;;4995386;28;20052;-84
2021/03/19 02:19:51;;;;;;;3.95;2.10;;;4.90;84.30;;;;;;4995310;28;20034;-83
2021/03/19 02:22:54;;;;;;;3.95;2.25;;;4.90;84.30;;;;;;5012198;28;20044;-84
2021/03/19 02:25:57;;;;;;;6.22;1.95;;;4.90;84.30;;;;;;5012828;28;20397;-84
2021/03/19 02:29:01;;;;;;;3.80;1.90;;;4.90;84.20;;;;;;5012751;28;20477;-83
2021/03/19 02:31:55;;;;;;;5.15;2.08;;;4.90;84.30;;;;;;4994561;28;20026;-82
2021/03/19 02:34:26;;;;;;;6.18;1.88;;;4.80;84.20;;;;;;5013521;28;20482;-83
2021/03/19 02:36:52;;;;;;;3.42;2.30;;;4.80;84.40;;;;;;5013243;28;20108;-83
2021/03/19 02:39:18;;;;;;;4.60;1.95;;;4.80;84.40;;;;;;5012437;28;20065;-84
2021/03/19 02:41:43;;;;;;;5.18;2.17;;;4.70;84.40;;;;;;5012478;28;20068;-82
2021/03/19 02:44:09;;;;;;;4.18;1.70;;;4.70;84.40;;;;;;5014590;28;20042;-82
2021/03/19 02:46:35;;;;;;;4.07;2.38;;;4.70;84.40;;;;;;5012655;28;20358;-84
2021/03/19 02:49:01;;;;;;;3.90;1.80;;;4.70;84.50;;;;;;5012780;28;20034;-83
2021/03/19 02:51:26;;;;;;;3.35;2.00;;;4.70;84.50;;;;;;4996186;28;20029;-82
2021/03/19 02:53:52;;;;;;;5.53;2.08;;;4.70;84.50;;;;;;5013192;28;20100;-83
2021/03/19 02:56:18;;;;;;;5.50;1.73;;;4.70;84.50;;;;;;5012454;28;20044;-83
2021/03/19 02:58:43;;;;;;;2.63;1.65;;;4.70;84.50;;;;;;5012244;28;20030;-84
2021/03/19 03:01:09;;;;;;;4.53;1.98;;;4.70;84.50;;;;;;4995376;28;20037;-83
2021/03/19 03:03:35;;;;;;;4.25;1.85;;;4.70;84.40;;;;;;5011790;28;20022;-83
2021/03/19 03:06:01;;;;;;;3.35;1.83;;;4.70;84.50;;;;;;5012562;28;20037;-82
2021/03/19 03:08:29;;;;;;;3.03;1.50;;;4.70;84.50;;;;;;5011636;28;20104;-79
2021/03/19 03:10:55;;;;;;;5.13;1.70;;;4.60;84.50;;;;;;4994152;28;20037;-83
2021/03/19 03:13:25;;;;;;;4.70;2.22;;;4.60;84.70;;;;;;5012091;28;20018;-83
2021/03/19 03:15:51;;;;;;;4.03;1.80;;;4.60;84.70;;;;;;5011272;28;20021;-82
2021/03/19 03:18:18;;;;;;;6.40;1.92;;;4.50;84.70;;;;;;4994385;28;20036;-83
2021/03/19 03:20:50;;;;;;;2.78;2.00;;;4.50;84.70;;;;;;5011709;28;20042;-84
2021/03/19 03:23:18;;;;;;;3.42;2.05;;;4.50;84.80;;;;;;5012219;28;20061;-81
2021/03/19 03:25:44;;;;;;;4.93;2.30;;;4.50;84.70;;;;;;5011431;28;20109;-83
2021/03/19 03:28:10;;;;;;;3.72;1.55;;;4.50;84.70;;;;;;5011954;28;20108;-82
2021/03/19 03:30:45;;;;;;;6.60;1.85;;;4.50;84.70;;;;;;5011358;28;20026;-83
2021/03/19 03:33:12;;;;;;;5.07;2.00;;;4.40;84.70;;;;;;4994892;28;20497;-83
2021/03/19 03:35:39;;;;;;;5.00;2.05;;;4.40;84.80;;;;;;4997892;28;20458;-83
2021/03/19 03:38:07;;;;;;;3.92;2.13;;;4.40;84.80;;;;;;5016034;28;20054;-83
2021/03/19 03:40:41;;;;;;;3.42;1.70;;;4.30;84.80;;;;;;5015299;28;20109;-83
2021/03/19 03:43:09;;;;;;;4.30;1.65;;;4.30;84.80;;;;;;5015539;28;20413;-83
2021/03/19 03:45:35;;;;;;;4.20;1.77;;;4.30;84.80;;;;;;5015019;28;20072;-83
2021/03/19 03:48:00;;;;;;;6.90;1.80;;;4.30;84.70;;;;;;5015303;28;20026;-82
2021/03/19 03:50:32;;;;;;;2.55;1.70;;;4.30;84.60;;;;;;5015641;28;20048;-83
2021/03/19 03:52:57;;;;;;;4.38;2.10;;;4.30;84.70;;;;;;5015477;28;20049;-82
2021/03/19 03:55:23;;;;;;;4.47;2.05;;;4.20;84.60;;;;;;5015427;28;20373;-83
2021/03/19 03:57:49;;;;;;;5.88;2.28;;;4.20;84.70;;;;;;5014782;28;20034;-84
2021/03/19 04:00:19;;;;;;;3.83;1.70;;;4.30;84.80;;;;;;5015252;28;20034;-83
2021/03/19 04:02:45;;;;;;;3.33;1.70;;;4.20;84.70;;;;;;4997325;28;20022;-83
2021/03/19 04:05:17;;;;;;;3.60;2.03;;;4.20;84.70;;;;;;5015669;28;20101;-83
2021/03/19 04:07:43;;;;;;;4.15;1.98;;;4.20;84.70;;;;;;5014554;28;20029;-82
2021/03/19 04:10:09;;;;;;;2.83;1.60;;;4.20;84.70;;;;;;5013561;28;20026;-82
2021/03/19 04:12:34;;;;;;;5.30;2.35;;;4.20;84.70;;;;;;4994955;28;20023;-82
2021/03/19 04:15:00;;;;;;;3.75;2.20;;;4.20;84.60;;;;;;4995390;28;20473;-83
2021/03/19 04:17:31;;;;;;;3.20;1.60;;;4.20;84.60;;;;;;4996278;28;20046;-83
2021/03/19 04:19:58;;;;;;;5.28;1.95;;;4.20;84.50;;;;;;4978297;28;20030;-83
2021/03/19 04:22:24;;;;;;;4.70;2.20;;;4.20;84.60;;;;;;4978185;28;20517;-83
2021/03/19 04:24:50;;;;;;;3.08;2.10;;;4.10;84.60;;;;;;4994804;28;20027;-83
2021/03/19 04:27:19;;;;;;;4.15;2.42;;;4.10;84.50;;;;;;4995529;28;20027;-83
2021/03/19 04:29:45;;;;;;;4.55;1.83;;;4.10;84.50;;;;;;4995289;28;20523;-82
2021/03/19 04:32:11;;;;;;;3.47;2.20;;;4.10;84.50;;;;;;4995561;28;20506;-82
2021/03/19 04:34:37;;;;;;;6.82;2.28;;;4.10;84.50;;;;;;4994657;28;20022;-83
2021/03/19 04:37:04;;;;;;;3.45;1.92;;;4.10;84.50;;;;;;4995318;28;20022;-82
2021/03/19 04:39:31;;;;;;;4.15;1.60;;;4.00;84.50;;;;;;4995198;28;20046;-82
2021/03/19 04:42:00;;;;;;;4.43;1.75;;;4.10;84.60;;;;;;4994664;28;20034;-82
2021/03/19 04:44:29;;;;;;;5.55;2.00;;;4.10;84.50;;;;;;4977121;28;20479;-83
2021/03/19 04:46:55;;;;;;;3.75;1.90;;;4.10;84.50;;;;;;4976807;28;20026;-83
2021/03/19 04:49:21;;;;;;;2.75;1.60;;;4.00;84.40;;;;;;4995275;28;20490;-82
2021/03/19 04:51:48;;;;;;;6.05;2.00;;;4.00;84.50;;;;;;4994425;28;20125;-83
2021/03/19 04:54:14;;;;;;;3.58;1.40;;;4.00;84.50;;;;;;4973790;28;20102;-83
2021/03/19 04:56:40;;;;;;;4.22;2.08;;;4.00;84.50;;;;;;4974531;28;20055;-81
2021/03/19 04:59:06;;;;;;;5.25;2.28;;;4.00;84.50;;;;;;4975259;28;20117;-82
2021/03/19 05:01:32;;;;;;;3.33;1.60;;;4.00;84.50;;;;;;4975055;28;20474;-82
2021/03/19 05:03:58;;;;;;;2.38;1.23;;;4.00;84.40;;;;;;4974396;28;20031;-83
2021/03/19 05:06:24;;;;;;;2.38;1.73;;;3.90;84.50;;;;;;4976143;28;20101;-77
2021/03/19 05:08:49;;;;;;;4.50;1.83;;;3.90;84.50;;;;;;4974654;28;20034;-78
2021/03/19 05:11:17;;;;;;;2.72;1.60;;;3.90;84.50;;;;;;4975055;28;20132;-79
2021/03/19 05:13:43;;;;;;;4.07;1.83;;;3.90;84.60;;;;;;4973060;28;20451;-78
2021/03/19 05:16:10;;;;;;;1.65;1.38;;;3.80;84.50;;;;;;4975342;28;20031;-80
2021/03/19 05:18:36;;;;;;;2.92;1.60;;;3.80;84.50;;;;;;4974534;28;20034;-76
2021/03/19 05:21:02;;;;;;;2.90;2.00;;;3.80;84.50;;;;;;4974103;28;20019;-81
2021/03/19 05:23:32;;;;;;;3.50;1.60;;;3.80;84.50;;;;;;4973559;28;20474;-80
2021/03/19 05:25:59;;;;;;;2.75;1.55;;;3.80;84.50;;;;;;4971353;28;20033;-78
2021/03/19 05:28:25;;;;;;;2.05;1.27;;;3.80;84.40;;;;;;4965448;28;20031;-79
2021/03/19 05:30:55;;;;;;;4.25;1.50;;;3.80;84.40;;;;;;4955111;29;20065;-79
2021/03/19 05:33:23;;;;;;;4.15;2.00;;;3.80;84.40;;;;;;4957101;28;20057;-78
2021/03/19 05:35:49;;;;;;;2.03;1.42;;;3.80;84.30;;;;;;4973581;28;20025;-79
2021/03/19 05:38:14;;;;;;;2.97;1.65;;;3.80;84.30;;;;;;4973709;28;20023;-78
2021/03/19 05:40:44;;;;;;;4.47;1.58;;;3.80;84.20;;;;;;4973589;28;20026;-80
2021/03/19 05:43:23;;;;;;;5.75;1.75;;;3.80;84.30;;;;;;4974019;28;20052;-79
2021/03/19 05:46:01;;;;;;;2.17;1.30;;;3.80;84.20;;;;;;4972373;28;20023;-77
2021/03/19 05:48:41;;;;;;;4.65;1.83;;;3.80;84.20;;;;;;4971110;28;20031;-79
2021/03/19 05:51:21;;;;;;;3.33;1.23;;;3.70;84.20;;;;;;4971850;28;20015;-79
2021/03/19 05:53:54;;;;;;;3.65;2.00;;;3.70;84.10;;;;;;4981428;28;20505;-78
2021/03/19 05:56:24;;;;;;;3.53;1.83;;;3.70;84.10;;;;;;4993705;28;20042;-79
2021/03/19 05:58:50;;;;;;;3.03;1.50;;;3.70;84.10;;;;;;4992964;28;20026;-78
2021/03/19 06:01:16;;;;;;;4.78;2.63;;;3.70;84.10;;;;;;4993277;28;20080;-79
2021/03/19 06:03:42;;;;;;;5.85;2.22;;;3.70;84.10;;;;;;4992321;28;20030;-77
2021/03/19 06:06:09;;;;;;;7.18;1.85;;;3.70;84.10;;;;;;4993302;28;20026;-80
2021/03/19 06:08:38;;;;;;;2.53;1.42;;;3.70;84.10;;;;;;4993384;28;20132;-79
2021/03/19 06:11:16;;;;;;;3.67;1.80;;;3.70;84.10;;;;;;4990780;28;20463;-77
2021/03/19 06:13:46;;;;;;;3.03;1.42;;;3.70;84.00;;;;;;4991697;28;20035;-80
2021/03/19 06:16:34;;;;;;;4.47;2.30;;;3.70;84.00;;;;;;4974706;28;20170;-84
2021/03/19 06:19:04;;;;;;;1.95;1.35;;;3.80;83.90;;;;;;4994928;28;20781;-86
2021/03/19 06:21:35;;;;;;;2.67;2.00;;;3.70;83.90;;;;;;4991035;28;20033;-79
2021/03/19 06:24:03;;;;;;;4.95;1.92;;;3.80;83.90;;;;;;4991210;28;20117;-76
2021/03/19 06:26:39;;;;;;;2.60;1.77;;;3.80;83.80;;;;;;4975479;28;20037;-76
2021/03/19 06:29:12;;;;;;;10.73;2.30;;;3.80;83.80;;;;;;4992393;28;20080;-76
2021/03/19 06:31:39;;;;;;;3.15;1.88;;;3.80;83.70;;;;;;4992403;28;20018;-76
2021/03/19 06:34:14;;;;;;;2.95;1.70;;;3.90;83.80;;;;;;4992173;28;20018;-76
2021/03/19 06:37:06;;;;;;;4.28;1.98;;;3.90;83.70;;;;;;4975206;28;20018;-75
2021/03/19 06:39:51;;;;;;;3.13;1.95;;;3.90;83.70;;;;;;4992417;28;20058;-76
2021/03/19 06:42:19;;;;;;;5.35;2.15;;;3.90;83.70;;;;;;4992579;28;20026;-76
2021/03/19 06:45:07;;;;;;;4.80;2.33;;;3.90;83.70;;;;;;4991850;28;20054;-76
2021/03/19 06:47:46;;;;;;;6.07;2.13;;;3.90;83.70;;;;;;4992607;28;20034;-75
2021/03/19 06:50:35;;;;;;;19.15;3.45;;;3.90;83.70;;;;;;4992391;28;20042;-76
2021/03/19 06:53:21;;;;;;;3.88;1.90;;;4.00;83.70;;;;;;4991602;28;20022;-76
2021/03/19 06:55:55;;;;;;;7.60;2.10;;;4.00;83.60;;;;;;4992255;28;20019;-76
2021/03/19 06:58:37;;;;;;;4.07;1.98;;;4.00;83.50;;;;;;4992625;28;20102;-76
2021/03/19 07:01:04;;;;;;;3.90;1.90;;;4.10;83.50;;;;;;4991877;28;20076;-76
2021/03/19 07:03:46;;;;;;;3.92;1.90;;;4.10;83.40;;;;;;4974776;28;20018;-76
2021/03/19 07:06:46;;;;;;;4.30;1.80;;;4.10;83.30;;;;;;4992601;28;20033;-76
2021/03/19 07:09:26;;;;;;;4.88;2.45;;;4.20;83.30;;;;;;4974271;28;20022;-77
2021/03/19 07:12:06;;;;;;;6.43;2.00;;;4.20;83.30;;;;;;4991869;28;20026;-76
2021/03/19 07:14:39;;;;;;;3.70;2.05;;;4.20;83.20;;;;;;4992476;28;20018;-76
2021/03/19 07:17:48;;;;;;;3.17;1.63;;;4.20;83.20;;;;;;4991716;28;20018;-76
2021/03/19 07:20:48;;;;;;;3.70;2.08;;;4.30;83.10;;;;;;4992059;28;20031;-76
2021/03/19 07:23:18;;;;;;;4.03;1.58;;;4.30;83.10;;;;;;4992197;28;20033;-76
2021/03/19 07:26:09;;;;;;;2.58;1.27;;;4.30;82.90;;;;;;4991976;28;20023;-76
2021/03/19 07:29:07;;;;;;;1.77;1.33;;;4.40;82.90;;;;;;4991874;28;20076;-76
2021/03/19 07:31:50;;;;;;;3.00;2.00;;;4.40;82.80;;;;;;4959384;28;20497;-76
2021/03/19 07:34:54;;;;;;;3.33;1.95;;;4.40;82.70;;;;;;4991890;28;20054;-75
2021/03/19 07:37:29;;;;;;;2.20;1.25;;;4.50;82.60;;;;;;4992029;28;20034;-76
2021/03/19 07:40:25;;;;;;;3.47;1.67;;;4.60;82.60;;;;;;4991517;28;20031;-76
2021/03/19 07:42:57;;;;;;;6.38;1.55;;;4.60;82.30;;;;;;4991565;28;20025;-76
2021/03/19 07:45:25;;;;;;;4.93;1.45;;;4.70;82.40;;;;;;4992172;28;20041;-77
2021/03/19 07:48:12;;;;;;;2.72;1.63;;;4.70;82.20;;;;;;4973934;28;20359;-76
2021/03/19 07:51:06;;;;;;;2.60;1.67;;;4.80;82.20;;;;;;4974495;28;20378;-78
2021/03/19 07:53:54;;;;;;;2.97;1.60;;;4.80;82.00;;;;;;4991813;28;20121;-76
2021/03/19 07:56:38;;;;;;;1.58;1.20;;;4.90;81.90;;;;;;4991667;28;20031;-76
2021/03/19 07:59:14;;;;;;;1.83;1.00;;;4.90;81.90;;;;;;4973790;28;20053;-77
2021/03/19 08:01:49;;;;;;;3.85;1.40;;;5.00;81.90;;;;;;4974290;28;20173;-76
2021/03/19 08:04:17;;;;;;;4.00;1.50;;;5.00;81.70;;;;;;4991468;28;20459;-76
2021/03/19 08:07:01;;;;;;;3.88;1.35;;;5.00;81.70;;;;;;4974343;28;20113;-77
2021/03/19 08:09:35;;;;;;;3.33;1.75;;;5.10;81.60;;;;;;4991526;28;20106;-77
2021/03/19 08:12:42;;;;;;;2.63;1.40;;;5.10;81.50;;;;;;4991306;28;20469;-77
2021/03/19 08:15:16;;;;;;;1.75;1.17;;;5.20;81.20;;;;;;4974317;28;20039;-76
2021/03/19 08:17:51;;;;;;;1.92;1.33;;;5.30;81.10;;;;;;4991591;28;20030;-76
2021/03/19 08:20:28;;;;;;;3.05;1.35;;;5.30;81.10;;;;;;4976483;28;20046;-76
2021/03/19 08:23:23;;;;;;;1.73;1.17;;;5.40;81.00;;;;;;4977303;28;20034;-76
2021/03/19 08:25:51;;;;;;;1.67;1.15;;;5.40;80.80;;;;;;4977669;28;20386;-76
2021/03/19 08:28:48;;;;;;;1.40;1.02;;;5.40;80.80;;;;;;4995088;28;20065;-76
2021/03/19 08:31:20;;;;;;;3.70;1.58;;;5.50;80.60;;;;;;4989826;28;20437;-77
2021/03/19 08:33:45;;;;;;;1.45;1.20;;;5.50;80.50;;;;;;4995195;28;20038;-77
2021/03/19 08:36:40;;;;;;;3.92;1.48;;;5.50;80.30;;;;;;4994184;28;20088;-75
2021/03/19 08:39:25;;;;;;;1.73;1.00;;;5.60;80.00;;;;;;4994295;28;20497;-76
2021/03/19 08:41:56;;;;;;;3.95;1.35;;;5.70;79.70;;;;;;4977288;28;20443;-76
2021/03/19 08:44:29;;;;;;;3.33;1.05;;;5.60;79.40;;;;;;4994685;28;20022;-75
2021/03/19 08:47:02;;;;;;;1.55;1.45;;;5.70;79.20;;;;;;4976607;28;20478;-77
2021/03/19 08:49:47;;;;;;;5.32;1.35;;;5.70;79.10;;;;;;4977360;28;20359;-77
2021/03/19 08:52:36;;;;;;;1.25;1.13;;;5.80;78.90;;;;;;4976459;28;20347;-76
2021/03/19 08:55:14;;;;;;;2.08;1.00;;;5.80;78.70;;;;;;4994072;28;20164;-76
2021/03/19 08:57:46;;;;;;;2.30;1.13;;;5.90;78.70;;;;;;4977153;28;20076;-77
2021/03/19 09:00:20;;;;;;;1.65;1.15;;;5.90;78.30;;;;;;4993827;28;20037;-76
2021/03/19 09:03:02;;;;;;;1.90;0.90;;;6.00;78.10;;;;;;4976903;28;20026;-76
2021/03/19 09:05:37;;;;;;;2.83;1.08;;;6.00;77.90;;;;;;4977095;28;20445;-77
2021/03/19 09:08:14;;;;;;;2.40;0.98;;;6.00;77.70;;;;;;4994043;28;20030;-77
2021/03/19 09:10:39;;;;;;;2.33;1.40;;;6.10;77.60;;;;;;4976788;28;20018;-76
2021/03/19 09:13:09;;;;;;;2.28;0.90;;;6.10;77.50;;;;;;4976135;28;20363;-76
2021/03/19 09:15:37;;;;;;;1.70;1.05;;;6.20;77.30;;;;;;4976728;28;20029;-77
2021/03/19 09:18:08;;;;;;;7.03;1.80;;;6.20;76.50;;;;;;4993379;28;20034;-76
2021/03/19 09:20:36;;;;;;;2.00;1.30;;;6.30;76.40;;;;;;4994329;28;20027;-75
2021/03/19 09:23:23;;;;;;;2.45;1.58;;;6.30;76.30;;;;;;4976000;28;20035;-76
2021/03/19 09:26:17;;;;;;;1.98;1.35;;;6.40;76.30;;;;;;4994095;28;20022;-77
2021/03/19 09:29:03;;;;;;;1.77;1.27;;;6.40;76.10;;;;;;4976365;28;20034;-77
2021/03/19 09:31:30;;;;;;;1.95;1.05;;;6.40;75.70;;;;;;4993019;28;20049;-76
2021/03/19 09:34:04;;;;;;;1.52;1.20;;;6.50;75.70;;;;;;4993514;28;20065;-77
2021/03/19 09:36:54;;;;;;;4.03;1.38;;;6.50;75.50;;;;;;4993995;28;20026;-76
2021/03/19 09:39:55;;;;;;;4.43;1.48;;;6.60;75.30;;;;;;4993074;28;20026;-76
2021/03/19 09:42:21;;;;;;;1.92;1.42;;;6.60;75.10;;;;;;4993106;28;20088;-76
2021/03/19 09:44:47;;;;;;;3.25;1.70;;;6.60;75.00;;;;;;4993728;28;20030;-77
2021/03/19 09:47:13;;;;;;;3.15;1.23;;;6.70;75.10;;;;;;4993134;28;20034;-77
2021/03/19 09:49:39;;;;;;;1.52;1.00;;;6.70;75.10;;;;;;4993752;28;20530;-75
2021/03/19 09:52:31;;;;;;;2.72;1.48;;;6.70;75.10;;;;;;4992926;28;20105;-77
2021/03/19 09:54:57;;;;;;;2.47;1.38;;;6.80;74.90;;;;;;4972552;28;20046;-76
2021/03/19 09:57:28;;;;;;;1.92;0.98;;;6.80;74.90;;;;;;4993055;28;20161;-76
2021/03/19 10:00:06;;;;;;;2.50;1.05;;;6.90;74.60;;;;;;4993498;28;20026;-77
2021/03/19 10:02:35;;;;;;;3.03;1.25;;;7.00;74.40;;;;;;4975989;28;20410;-77
2021/03/19 10:05:14;;;;;;;1.55;1.00;;;7.00;73.60;;;;;;4992761;28;20026;-75
2021/03/19 10:07:53;;;;;;;2.15;1.20;;;7.00;73.30;;;;;;4993249;28;20057;-76
2021/03/19 10:10:32;;;;;;;5.45;1.65;;;7.20;73.20;;;;;;4975262;28;20057;-76
2021/03/19 10:13:18;;;;;;;2.50;1.20;;;7.20;72.60;;;;;;4975754;28;20018;-77
2021/03/19 10:15:46;;;;;;;2.63;1.50;;;7.20;72.20;;;;;;4975781;28;20027;-77
2021/03/19 10:18:26;;;;;;;2.97;1.35;;;7.20;72.40;;;;;;4992431;28;20433;-76
2021/03/19 10:20:55;;;;;;;2.20;1.40;;;7.30;71.40;;;;;;4993013;28;20060;-77
2021/03/19 10:23:32;;;;;;;2.15;1.20;;;7.40;71.30;;;;;;4974902;28;20193;-76
2021/03/19 10:26:25;;;;;;;2.75;1.60;;;7.40;70.70;;;;;;4993084;28;20030;-77
2021/03/19 10:29:14;;;;;;;3.10;1.70;;;7.40;70.80;;;;;;4993003;28;20038;-76
2021/03/19 10:31:52;;;;;;;6.10;2.28;;;7.50;70.80;;;;;;4975550;28;20179;-77
2021/03/19 10:34:46;;;;;;;3.78;1.60;;;7.60;70.70;;;;;;4992210;28;20045;-77
2021/03/19 10:37:33;;;;;;;3.35;1.55;;;7.70;70.50;;;;;;4991915;28;20026;-77
2021/03/19 10:40:13;;;;;;;3.67;1.60;;;7.70;70.40;;;;;;4992780;28;20034;-77
2021/03/19 10:43:09;;;;;;;2.85;1.05;;;7.70;70.50;;;;;;4992935;28;20054;-76
2021/03/19 10:45:45;;;;;;;2.13;1.30;;;7.80;70.50;;;;;;4992652;28;20054;-76
2021/03/19 10:48:21;;;;;;;3.20;1.30;;;7.80;70.50;;;;;;4992174;28;20085;-77
2021/03/19 10:51:05;;;;;;;2.33;1.20;;;7.80;70.50;;;;;;4992764;28;20022;-77
2021/03/19 10:53:56;;;;;;;3.28;1.50;;;7.90;70.40;;;;;;4974367;28;20053;-76
2021/03/19 10:56:23;;;;;;;1.60;1.17;;;8.00;70.30;;;;;;4991855;28;20044;-77
2021/03/19 10:58:54;;;;;;;7.25;1.67;;;7.90;70.20;;;;;;4974806;28;20409;-77
2021/03/19 11:01:39;;;;;;;3.05;1.48;;;8.00;70.00;;;;;;4974951;28;20458;-77
2021/03/19 11:04:36;;;;;;;2.03;1.00;;;8.00;69.60;;;;;;4991800;28;20027;-76
2021/03/19 11:07:43;;;;;;;2.15;1.50;;;8.10;69.50;;;;;;4992372;28;20026;-77
2021/03/19 11:10:35;;;;;;;2.13;0.82;;;8.20;69.20;;;;;;4931310;29;20417;-76
2021/03/19 11:13:10;;;;;;;4.90;1.10;;;8.40;69.20;;;;;;4992107;28;20101;-77
2021/03/19 11:15:36;;;;;;;2.63;1.30;;;8.40;68.80;;;;;;4992409;28;20026;-78
2021/03/19 11:18:26;;;;;;;2.80;1.27;;;8.50;68.70;;;;;;4991862;28;20085;-76
2021/03/19 11:21:06;;;;;;;2.03;1.13;;;8.60;68.40;;;;;;4974518;28;20434;-76
2021/03/19 11:23:48;;;;;;;5.55;1.13;;;8.60;68.20;;;;;;4974923;28;20028;-77
2021/03/19 11:26:17;;;;;;;1.90;0.80;;;8.80;67.90;;;;;;4991668;28;20109;-76
2021/03/19 11:28:43;;;;;;;1.63;0.70;;;8.80;67.50;;;;;;4992229;28;20026;-77
2021/03/19 11:31:19;;;;;;;1.30;1.15;;;9.00;67.10;;;;;;4991561;28;20447;-76
2021/03/19 11:34:11;;;;;;;2.20;0.95;;;9.10;66.90;;;;;;4992203;28;20026;-76
2021/03/19 11:36:57;;;;;;;3.35;1.45;;;9.20;66.20;;;;;;4991980;28;20026;-77
2021/03/19 11:39:41;;;;;;;2.35;1.10;;;9.40;65.20;;;;;;4991431;28;20443;-76
2021/03/19 11:42:14;;;;;;;1.52;1.23;;;9.50;65.40;;;;;;4973431;28;20117;-77
2021/03/19 11:44:41;;;;;;;2.15;0.90;;;9.70;65.20;;;;;;4974661;28;20098;-77
2021/03/19 11:47:19;;;;;;;1.27;0.90;;;9.90;64.80;;;;;;4991413;28;20475;-76
2021/03/19 11:49:45;;;;;;;3.53;1.58;;;10.20;64.50;;;;;;4992164;28;20038;-77
2021/03/19 11:52:16;;;;;;;1.35;0.80;;;10.40;64.30;;;;;;4991396;28;20030;-77
2021/03/19 11:54:43;;;;;;;0.88;0.80;;;10.40;64.10;;;;;;4993139;28;20573;-76
2021/03/19 11:57:09;;;;;;;1.77;0.90;;;10.50;63.70;;;;;;4995092;28;20045;-77
2021/03/19 11:59:35;;;;;;;3.72;1.10;;;10.50;62.40;;;;;;4995670;28;20497;-77
2021/03/19 12:02:08;;;;;;;2.08;0.90;;;10.70;62.10;;;;;;4995464;28;20034;-78
2021/03/19 12:04:34;;;;;;;1.00;0.93;;;10.80;62.10;;;;;;4995362;28;20037;-76
2021/03/19 12:07:00;;;;;;;0.88;0.50;;;10.90;61.90;;;;;;4978034;28;20022;-77
2021/03/19 12:09:28;;;;;;;2.17;1.02;;;10.90;61.10;;;;;;4994967;28;20030;-77
2021/03/19 12:11:53;;;;;;;0.50;0.50;;;10.90;60.40;;;;;;4995423;28;20419;-77
2021/03/19 12:14:25;;;;;;;1.00;0.70;;;10.90;60.30;;;;;;4994802;28;20023;-76
2021/03/19 12:16:52;;;;;;;1.60;0.77;;;11.00;60.00;;;;;;4995378;28;20023;-76
2021/03/19 12:19:19;;;;;;;4.78;0.90;;;11.10;60.00;;;;;;4994557;28;20034;-77
2021/03/19 12:21:45;;;;;;;1.00;0.70;;;11.30;60.00;;;;;;4977700;28;20037;-77
2021/03/19 12:24:11;;;;;;;0.90;0.70;;;11.60;59.70;;;;;;4994584;28;20031;-77
2021/03/19 12:26:37;;;;;;;1.75;0.82;;;11.80;59.30;;;;;;4995374;28;20054;-77
2021/03/19 12:29:03;;;;;;;0.60;0.60;;;11.80;58.30;;;;;;4995298;28;20109;-77
2021/03/19 12:31:29;;;;;;;2.72;1.35;;;11.80;58.50;;;;;;4994530;28;20062;-77
2021/03/19 12:33:54;;;;;;;0.50;0.50;;;11.80;57.90;;;;;;4994872;28;20057;-77
2021/03/19 12:36:20;;;;;;;1.70;0.70;;;11.70;57.50;;;;;;4994241;28;20033;-76
2021/03/19 12:38:47;;;;;;;1.77;0.80;;;11.60;58.00;;;;;;4977511;28;20030;-76
2021/03/19 12:41:13;;;;;;;1.88;0.85;;;11.60;58.70;;;;;;4994490;28;20105;-76
2021/03/19 12:43:42;;;;;;;1.10;0.60;;;11.50;58.70;;;;;;4995318;28;20110;-77
2021/03/19 12:46:08;;;;;;;0.75;0.47;;;11.50;58.30;;;;;;4977085;28;20062;-77
2021/03/19 12:48:34;;;;;;;0.73;0.60;;;11.50;58.30;;;;;;4994457;28;20379;-76
2021/03/19 12:51:00;;;;;;;1.02;0.60;;;11.50;58.50;;;;;;4991245;28;20088;-77
2021/03/19 12:53:27;;;;;;;1.52;0.98;;;11.40;58.50;;;;;;4981341;28;20053;-77
2021/03/19 12:55:53;;;;;;;1.05;0.60;;;11.40;57.70;;;;;;4977233;28;20110;-77
2021/03/19 12:58:20;;;;;;;4.35;1.52;;;11.40;57.90;;;;;;4975300;28;20106;-77
2021/03/19 13:00:47;;;;;;;1.48;1.13;;;11.40;58.00;;;;;;4994185;28;20026;-76
2021/03/19 13:03:13;;;;;;;3.15;0.60;;;11.40;57.90;;;;;;4993742;28;20052;-76
2021/03/19 13:05:41;;;;;;;0.57;0.55;;;11.50;57.80;;;;;;4994425;28;20030;-77
2021/03/19 13:08:07;;;;;;;0.45;0.45;;;11.50;57.20;;;;;;4971032;28;20042;-77
2021/03/19 13:10:34;;;;;;;0.52;0.50;;;11.40;56.20;;;;;;4987429;28;20036;-78
2021/03/19 13:13:01;;;;;;;0.50;0.50;;;11.40;55.80;;;;;;5012851;28;20046;-77
2021/03/19 13:15:31;;;;;;;0.60;0.50;;;11.40;55.90;;;;;;5008793;28;20478;-75
2021/03/19 13:17:57;;;;;;;1.33;0.50;;;11.50;56.00;;;;;;5005060;28;20123;-77
2021/03/19 13:20:25;;;;;;;0.50;0.50;;;11.50;55.90;;;;;;4987172;28;20026;-76
2021/03/19 13:22:50;;;;;;;1.48;0.68;;;11.60;55.70;;;;;;4994009;28;20049;-74
2021/03/19 13:25:23;;;;;;;0.60;0.60;;;11.70;56.00;;;;;;5010935;28;20451;-77
2021/03/19 13:27:49;;;;;;;0.40;0.40;;;11.80;55.40;;;;;;5012503;28;20038;-77
2021/03/19 13:30:17;;;;;;;0.50;0.50;;;11.70;54.90;;;;;;5005627;28;20022;-77